createdAt,value
2018-08-19T00:02:08.811Z,8.70
2018-08-19T00:04:38.319Z,8.77
2018-08-19T00:07:07.197Z,7.97
2018-08-19T00:09:36.115Z,7.80
2018-08-19T00:12:04.977Z,8.83
2018-08-19T00:14:35.172Z,12.13
2018-08-19T00:17:04.609Z,11.27
2018-08-19T00:19:34.745Z,8.60
2018-08-19T00:22:03.417Z,10.37
2018-08-19T00:24:32.265Z,9.83
2018-08-19T00:27:00.955Z,9.77
2018-08-19T00:29:43.839Z,10.27
2018-08-19T00:32:13.718Z,11.50
2018-08-19T00:34:42.518Z,9.70
2018-08-19T00:37:17.437Z,9.40
2018-08-19T00:39:46.128Z,8.83
2018-08-19T00:42:14.827Z,11.40
2018-08-19T00:44:43.566Z,10.63
2018-08-19T00:47:12.310Z,10.70
2018-08-19T00:49:41.183Z,10.50
2018-08-19T00:52:09.924Z,11.60
2018-08-19T00:54:38.625Z,13.43
2018-08-19T00:57:08.373Z,13.90
2018-08-19T00:59:38.435Z,13.10
2018-08-19T01:02:07.141Z,13.27
2018-08-19T01:04:35.930Z,13.87
2018-08-19T01:07:04.691Z,12.97
2018-08-19T01:09:33.368Z,13.30
2018-08-19T01:12:02.232Z,13.83
2018-08-19T01:14:31.232Z,14.30
2018-08-19T01:17:00.232Z,12.27
2018-08-19T01:19:28.925Z,13.43
2018-08-19T01:21:57.590Z,12.50
2018-08-19T01:24:26.313Z,13.40
2018-08-19T01:26:55.037Z,13.33
2018-08-19T01:29:34.802Z,13.27
2018-08-19T01:32:12.801Z,13.27
2018-08-19T01:34:44.654Z,14.47
2018-08-19T01:37:14.254Z,12.77
2018-08-19T01:39:42.952Z,16.20
2018-08-19T01:42:11.933Z,12.83
2018-08-19T01:44:42.499Z,12.63
2018-08-19T01:47:11.203Z,14.83
2018-08-19T01:49:40.054Z,15.30
2018-08-19T01:52:08.762Z,14.67
2018-08-19T01:54:37.505Z,14.20
2018-08-19T01:57:06.491Z,13.63
2018-08-19T01:59:35.773Z,14.90
2018-08-19T02:02:05.657Z,13.80
2018-08-19T02:04:46.293Z,13.43
2018-08-19T02:07:16.112Z,15.10
2018-08-19T02:09:57.871Z,14.70
2018-08-19T02:12:41.361Z,13.43
2018-08-19T02:15:10.811Z,16.23
2018-08-19T02:17:53.462Z,14.43
2018-08-19T02:20:31.131Z,13.83
2018-08-19T02:23:01.112Z,13.80
2018-08-19T02:25:37.084Z,15.57
2018-08-19T02:28:07.141Z,15.10
2018-08-19T02:30:36.845Z,14.63
2018-08-19T02:33:05.537Z,14.77
2018-08-19T02:35:34.296Z,13.97
2018-08-19T02:38:02.969Z,14.27
2018-08-19T02:40:32.870Z,15.43
2018-08-19T02:43:01.791Z,16.03
2018-08-19T02:45:30.482Z,16.07
2018-08-19T02:47:59.396Z,15.57
2018-08-19T02:50:28.051Z,15.00
2018-08-19T02:52:56.738Z,15.93
2018-08-19T02:55:25.923Z,14.70
2018-08-19T02:57:59.820Z,16.33
2018-08-19T03:00:29.663Z,15.77
2018-08-19T03:02:59.654Z,14.23
2018-08-19T03:05:28.961Z,16.17
2018-08-19T03:07:57.615Z,16.37
2018-08-19T03:10:26.291Z,16.73
2018-08-19T03:12:54.955Z,16.03
2018-08-19T03:15:23.766Z,18.10
2018-08-19T03:17:52.377Z,15.27
2018-08-19T03:20:21.150Z,15.27
2018-08-19T03:22:49.757Z,16.83
2018-08-19T03:25:18.458Z,15.13
2018-08-19T03:27:47.093Z,16.10
2018-08-19T03:30:16.273Z,18.97
2018-08-19T03:32:50.523Z,16.47
2018-08-19T03:35:20.892Z,14.83
2018-08-19T03:37:51.954Z,17.97
2018-08-19T03:40:20.879Z,14.47
2018-08-19T03:42:49.580Z,15.87
2018-08-19T03:45:19.191Z,15.07
2018-08-19T03:47:49.131Z,14.97
2018-08-19T03:50:21.802Z,16.00
2018-08-19T03:52:51.311Z,15.63
2018-08-19T03:55:24.282Z,16.13
2018-08-19T03:57:54.122Z,16.80
2018-08-19T04:00:23.052Z,15.63
2018-08-19T04:02:51.841Z,15.43
2018-08-19T04:06:23.441Z,15.70
2018-08-19T04:08:52.773Z,15.47
2018-08-19T04:11:21.429Z,15.93
2018-08-19T04:13:50.095Z,17.43
2018-08-19T04:16:18.988Z,16.67
2018-08-19T04:18:47.646Z,16.30
2018-08-19T04:21:17.704Z,16.47
2018-08-19T04:23:48.690Z,17.20
2018-08-19T04:26:17.343Z,15.60
2018-08-19T04:28:46.753Z,16.50
2018-08-19T04:31:20.727Z,16.13
2018-08-19T04:33:50.075Z,17.13
2018-08-19T04:36:20.504Z,19.00
2018-08-19T04:38:49.259Z,16.27
2018-08-19T04:41:18.501Z,15.43
2018-08-19T04:43:48.084Z,16.33
2018-08-19T04:46:23.262Z,16.47
2018-08-19T04:48:52.301Z,17.37
2018-08-19T04:51:21.192Z,17.00
2018-08-19T04:53:49.916Z,16.80
2018-08-19T04:56:19.447Z,17.40
2018-08-19T04:58:48.125Z,16.67
2018-08-19T05:01:16.946Z,21.00
2018-08-19T05:03:46.579Z,17.60
2018-08-19T05:06:15.323Z,19.00
2018-08-19T05:08:44.033Z,17.20
2018-08-19T05:11:12.799Z,15.87
2018-08-19T05:13:41.459Z,20.50
2018-08-19T05:16:10.204Z,18.73
2018-08-19T05:18:38.949Z,17.63
2018-08-19T05:21:12.983Z,17.53
2018-08-19T05:23:41.653Z,19.67
2018-08-19T05:26:12.869Z,18.60
2018-08-19T05:28:41.945Z,20.00
2018-08-19T05:31:10.733Z,19.23
2018-08-19T05:33:41.869Z,19.57
2018-08-19T05:36:10.629Z,20.97
2018-08-19T05:38:39.343Z,17.17
2018-08-19T05:41:09.926Z,18.73
2018-08-19T05:43:38.701Z,17.67
2018-08-19T05:46:07.467Z,19.87
2018-08-19T05:48:36.212Z,18.77
2018-08-19T05:51:05.113Z,17.60
2018-08-19T05:53:35.067Z,21.13
2018-08-19T05:56:03.743Z,18.00
2018-08-19T05:58:32.427Z,18.70
2018-08-19T06:01:01.363Z,18.67
2018-08-19T06:03:30.417Z,19.20
2018-08-19T06:05:59.509Z,17.93
2018-08-19T06:08:28.360Z,20.23
2018-08-19T06:10:57.243Z,19.10
2018-08-19T06:13:28.510Z,21.83
2018-08-19T06:15:57.230Z,21.57
2018-08-19T06:18:25.859Z,21.30
2018-08-19T06:20:54.512Z,22.27
2018-08-19T06:23:23.550Z,21.63
2018-08-19T06:25:52.288Z,21.20
2018-08-19T06:28:20.995Z,21.73
2018-08-19T06:30:49.760Z,21.93
2018-08-19T06:33:18.511Z,22.50
2018-08-19T06:35:47.262Z,23.07
2018-08-19T06:38:15.951Z,21.93
2018-08-19T06:40:44.659Z,22.03
2018-08-19T06:43:13.513Z,21.60
2018-08-19T06:45:42.164Z,22.40
2018-08-19T06:48:11.564Z,26.07
2018-08-19T06:50:40.334Z,24.03
2018-08-19T06:53:14.818Z,23.03
2018-08-19T06:55:52.527Z,23.63
2018-08-19T06:58:21.413Z,24.80
2018-08-19T07:00:50.354Z,23.90
2018-08-19T07:03:19.153Z,22.83
2018-08-19T07:06:01.889Z,23.00
2018-08-19T07:08:30.801Z,21.90
2018-08-19T07:10:59.503Z,24.00
2018-08-19T07:13:28.325Z,23.27
2018-08-19T07:15:57.431Z,20.93
2018-08-19T07:18:26.165Z,21.13
2018-08-19T07:20:54.808Z,21.37
2018-08-19T07:23:23.681Z,21.37
2018-08-19T07:25:52.413Z,20.47
2018-08-19T07:28:21.129Z,23.60
2018-08-19T07:30:49.821Z,21.77
2018-08-19T07:33:18.701Z,22.73
2018-08-19T07:35:47.391Z,20.97
2018-08-19T07:38:16.073Z,19.47
2018-08-19T07:40:44.709Z,20.77
2018-08-19T07:43:13.395Z,19.70
2018-08-19T07:45:42.104Z,19.97
2018-08-19T07:48:11.009Z,19.43
2018-08-19T07:50:39.685Z,18.33
2018-08-19T07:53:08.347Z,20.17
2018-08-19T07:55:37.261Z,20.87
2018-08-19T07:58:06.183Z,22.73
2018-08-19T08:00:40.851Z,20.43
2018-08-19T08:03:09.988Z,19.03
2018-08-19T08:05:44.064Z,20.53
2018-08-19T08:08:12.899Z,19.60
2018-08-19T08:10:42.070Z,20.90
2018-08-19T08:13:11.924Z,21.33
2018-08-19T08:15:46.437Z,20.77
2018-08-19T08:18:15.872Z,19.70
2018-08-19T08:20:44.593Z,21.33
2018-08-19T08:23:23.648Z,19.20
2018-08-19T08:25:52.405Z,19.57
2018-08-19T08:28:21.580Z,18.87
2018-08-19T08:30:50.306Z,24.00
2018-08-19T08:33:19.144Z,18.60
2018-08-19T08:35:52.248Z,18.67
2018-08-19T08:38:21.365Z,19.53
2018-08-19T08:40:50.177Z,17.07
2018-08-19T08:43:19.056Z,19.93
2018-08-19T08:45:47.855Z,20.03
2018-08-19T08:48:16.647Z,21.67
2018-08-19T08:50:45.414Z,16.27
2018-08-19T08:53:14.144Z,19.90
2018-08-19T08:55:42.993Z,16.97
2018-08-19T08:58:11.663Z,19.03
2018-08-19T09:00:40.705Z,18.43
2018-08-19T09:03:09.764Z,20.00
2018-08-19T09:05:38.643Z,17.87
2018-08-19T09:08:07.335Z,20.33
2018-08-19T09:10:36.039Z,19.83
2018-08-19T09:13:05.150Z,20.53
2018-08-19T09:15:34.133Z,18.57
2018-08-19T09:18:02.831Z,19.90
2018-08-19T09:20:31.679Z,18.27
2018-08-19T09:23:00.616Z,18.57
2018-08-19T09:25:29.463Z,16.47
2018-08-19T09:27:58.241Z,14.33
2018-08-19T09:30:35.699Z,13.90
2018-08-19T09:33:04.733Z,12.23
2018-08-19T09:35:34.983Z,13.10
2018-08-19T09:38:10.209Z,14.23
2018-08-19T09:40:39.211Z,13.60
2018-08-19T09:43:09.081Z,17.17
2018-08-19T09:45:38.413Z,15.33
2018-08-19T09:48:08.023Z,17.27
2018-08-19T09:50:37.765Z,14.40
2018-08-19T09:53:06.605Z,12.67
2018-08-19T09:55:39.517Z,10.80
2018-08-19T09:58:23.983Z,11.20
2018-08-19T10:00:57.969Z,12.13
2018-08-19T10:03:26.667Z,11.20
2018-08-19T10:05:55.418Z,12.67
2018-08-19T10:08:24.995Z,14.87
2018-08-19T10:10:54.033Z,13.93
2018-08-19T10:13:22.741Z,10.67
2018-08-19T10:15:51.429Z,14.47
2018-08-19T10:18:20.410Z,11.17
2018-08-19T10:20:49.079Z,11.33
2018-08-19T10:23:17.789Z,11.67
2018-08-19T10:25:46.487Z,11.77
2018-08-19T10:28:15.268Z,9.60
2018-08-19T10:30:49.362Z,12.30
2018-08-19T10:33:20.433Z,10.20
2018-08-19T10:35:49.338Z,12.30
2018-08-19T10:38:18.170Z,12.40
2018-08-19T10:40:52.980Z,9.67
2018-08-19T10:43:21.759Z,10.80
2018-08-19T10:45:50.553Z,9.47
2018-08-19T10:48:19.244Z,9.17
2018-08-19T10:50:47.972Z,10.17
2018-08-19T10:53:21.851Z,11.20
2018-08-19T10:55:50.512Z,8.90
2018-08-19T10:58:19.406Z,10.17
2018-08-19T11:00:51.016Z,10.07
2018-08-19T11:03:20.841Z,8.50
2018-08-19T11:05:51.350Z,9.17
2018-08-19T11:08:20.502Z,8.70
2018-08-19T11:10:49.307Z,8.70
2018-08-19T11:13:19.287Z,7.80
2018-08-19T11:15:50.586Z,7.00
2018-08-19T11:18:26.329Z,8.17
2018-08-19T11:21:58.535Z,8.03
2018-08-19T11:24:28.234Z,6.53
2018-08-19T11:27:01.201Z,7.07
2018-08-19T11:29:32.012Z,7.27
2018-08-19T11:32:00.709Z,7.97
2018-08-19T11:34:29.420Z,10.40
2018-08-19T11:36:58.205Z,7.43
2018-08-19T11:39:32.265Z,8.73
2018-08-19T11:42:01.083Z,9.03
2018-08-19T11:44:30.265Z,9.33
2018-08-19T11:46:59.305Z,8.20
2018-08-19T11:49:28.137Z,7.23
2018-08-19T11:52:05.146Z,7.47
2018-08-19T11:54:34.875Z,7.10
2018-08-19T11:57:05.938Z,7.70
2018-08-19T11:59:49.209Z,7.10
2018-08-19T12:02:20.131Z,8.07
2018-08-19T12:04:48.976Z,8.90
2018-08-19T12:07:18.275Z,7.60
2018-08-19T12:09:55.923Z,8.40
2018-08-19T12:12:41.071Z,7.93
2018-08-19T12:15:10.267Z,7.33
2018-08-19T12:17:38.962Z,9.80
2018-08-19T12:20:07.989Z,7.03
2018-08-19T12:22:36.760Z,7.50
2018-08-19T12:25:05.675Z,10.13
2018-08-19T12:27:34.448Z,6.13
2018-08-19T12:30:09.246Z,8.20
2018-08-19T12:32:37.945Z,7.07
2018-08-19T12:35:06.618Z,7.63
2018-08-19T12:37:35.686Z,6.80
2018-08-19T12:40:05.695Z,7.67
2018-08-19T12:43:05.780Z,9.13
2018-08-19T12:45:34.495Z,9.27
2018-08-19T12:48:03.169Z,6.97
2018-08-19T12:50:33.527Z,9.97
2018-08-19T12:53:02.239Z,8.30
2018-08-19T12:55:30.948Z,7.93
2018-08-19T12:58:04.901Z,6.13
2018-08-19T13:00:40.189Z,6.40
2018-08-19T13:03:09.150Z,7.40
2018-08-19T13:05:53.111Z,6.17
2018-08-19T13:08:21.849Z,6.03
2018-08-19T13:10:50.498Z,7.97
2018-08-19T13:13:19.265Z,6.50
2018-08-19T13:15:47.972Z,7.13
2018-08-19T13:18:24.386Z,6.00
2018-08-19T13:20:53.133Z,6.10
2018-08-19T13:23:21.871Z,7.67
2018-08-19T13:25:50.616Z,12.00
2018-08-19T13:28:19.357Z,6.43
2018-08-19T13:30:48.092Z,6.23
2018-08-19T13:33:16.732Z,6.43
2018-08-19T13:35:45.620Z,6.57
2018-08-19T13:38:26.889Z,6.47
2018-08-19T13:40:55.631Z,7.40
2018-08-19T13:43:24.376Z,12.37
2018-08-19T13:45:53.087Z,6.27
2018-08-19T13:48:21.828Z,5.40
2018-08-19T13:50:50.629Z,7.30
2018-08-19T13:53:19.416Z,6.93
2018-08-19T13:55:48.370Z,6.67
2018-08-19T13:58:17.235Z,6.80
2018-08-19T14:00:45.893Z,7.27
2018-08-19T14:03:14.660Z,6.83
2018-08-19T14:05:44.887Z,10.73
2018-08-19T14:08:13.939Z,6.43
2018-08-19T14:10:42.685Z,8.00
2018-08-19T14:13:11.726Z,6.77
2018-08-19T14:15:40.500Z,5.60
2018-08-19T14:18:09.284Z,9.10
2018-08-19T14:20:37.930Z,8.27
2018-08-19T14:23:06.677Z,7.90
2018-08-19T14:25:35.472Z,6.03
2018-08-19T14:28:04.528Z,8.13
2018-08-19T14:30:33.629Z,7.13
2018-08-19T14:33:02.306Z,5.67
2018-08-19T14:35:31.146Z,5.90
2018-08-19T14:38:00.119Z,6.00
2018-08-19T14:40:29.092Z,8.33
2018-08-19T14:42:57.753Z,5.77
2018-08-19T14:45:26.726Z,6.90
2018-08-19T14:47:55.434Z,5.70
2018-08-19T14:50:24.334Z,7.53
2018-08-19T14:52:53.348Z,8.20
2018-08-19T14:55:22.074Z,6.20
2018-08-19T14:57:51.030Z,8.93
2018-08-19T15:00:19.866Z,6.23
2018-08-19T15:02:48.508Z,5.53
2018-08-19T15:05:19.092Z,5.70
2018-08-19T15:07:48.310Z,5.53
2018-08-19T15:10:22.280Z,6.10
2018-08-19T15:12:51.451Z,5.77
2018-08-19T15:15:20.308Z,8.10
2018-08-19T15:17:54.466Z,6.73
2018-08-19T15:20:28.729Z,6.70
2018-08-19T15:23:07.379Z,6.00
2018-08-19T15:25:36.106Z,5.90
2018-08-19T15:28:05.012Z,5.60
2018-08-19T15:30:33.820Z,7.30
2018-08-19T15:33:02.879Z,6.30
2018-08-19T15:35:31.516Z,5.83
2018-08-19T15:38:00.292Z,5.23
2018-08-19T15:40:39.416Z,5.57
2018-08-19T15:43:08.816Z,5.50
2018-08-19T15:45:37.618Z,5.23
2018-08-19T15:48:07.043Z,5.70
2018-08-19T15:50:35.845Z,5.43
2018-08-19T15:53:06.990Z,4.87
2018-08-19T15:55:36.078Z,6.73
2018-08-19T15:58:05.064Z,5.50
2018-08-19T16:00:37.054Z,7.53
2018-08-19T16:03:05.856Z,6.90
2018-08-19T16:05:34.619Z,6.40
2018-08-19T16:08:04.785Z,6.20
2018-08-19T16:10:33.738Z,6.57
2018-08-19T16:13:10.472Z,5.33
2018-08-19T16:15:39.490Z,4.57
2018-08-19T16:18:08.696Z,6.13
2018-08-19T16:20:37.560Z,5.30
2018-08-19T16:23:06.477Z,4.80
2018-08-19T16:25:35.261Z,5.00
2018-08-19T16:28:04.183Z,5.17
2018-08-19T16:30:32.846Z,5.37
2018-08-19T16:33:01.521Z,5.23
2018-08-19T16:35:30.221Z,4.77
2018-08-19T16:37:59.171Z,7.30
2018-08-19T16:40:28.148Z,6.37
2018-08-19T16:42:56.947Z,4.77
2018-08-19T16:45:25.872Z,4.43
2018-08-19T16:47:54.650Z,5.27
2018-08-19T16:50:23.700Z,6.23
2018-08-19T16:52:52.569Z,6.53
2018-08-19T16:55:21.408Z,6.40
2018-08-19T16:57:50.120Z,7.07
2018-08-19T17:00:18.924Z,5.93
2018-08-19T17:02:47.981Z,6.47
2018-08-19T17:05:30.999Z,7.47
2018-08-19T17:07:59.796Z,5.17
2018-08-19T17:10:29.170Z,5.53
2018-08-19T17:12:58.540Z,5.43
2018-08-19T17:15:27.549Z,5.07
2018-08-19T17:17:56.248Z,6.10
2018-08-19T17:20:24.982Z,7.03
2018-08-19T17:22:53.654Z,5.03
2018-08-19T17:25:22.680Z,6.63
2018-08-19T17:27:51.436Z,5.10
2018-08-19T17:30:20.290Z,4.93
2018-08-19T17:32:58.495Z,5.90
2018-08-19T17:35:27.314Z,5.87
2018-08-19T17:37:56.014Z,5.63
2018-08-19T17:40:24.854Z,5.37
2018-08-19T17:42:53.836Z,5.80
2018-08-19T17:45:22.671Z,5.47
2018-08-19T17:47:53.192Z,5.37
2018-08-19T17:50:25.924Z,5.90
2018-08-19T17:52:56.208Z,5.87
2018-08-19T17:55:25.356Z,5.03
2018-08-19T17:57:55.510Z,5.03
2018-08-19T18:00:24.489Z,5.37
2018-08-19T18:02:53.264Z,5.17
2018-08-19T18:05:21.987Z,5.27
2018-08-19T18:07:54.058Z,4.90
2018-08-19T18:10:22.972Z,5.10
2018-08-19T18:12:52.137Z,5.23
2018-08-19T18:15:20.934Z,5.57
2018-08-19T18:17:57.153Z,5.93
2018-08-19T18:20:28.626Z,5.53
2018-08-19T18:22:57.828Z,5.40
2018-08-19T18:25:26.896Z,5.47
2018-08-19T18:27:55.750Z,5.40
2018-08-19T18:30:25.940Z,6.57
2018-08-19T18:32:54.719Z,5.87
2018-08-19T18:35:23.804Z,5.37
2018-08-19T18:37:52.540Z,5.40
2018-08-19T18:40:32.130Z,6.13
2018-08-19T18:43:01.190Z,5.93
2018-08-19T18:45:30.009Z,5.77
2018-08-19T18:48:01.552Z,6.03
2018-08-19T18:50:30.357Z,6.40
2018-08-19T18:52:59.224Z,6.90
2018-08-19T18:55:28.188Z,6.47
2018-08-19T18:57:57.353Z,6.37
2018-08-19T19:00:27.069Z,6.37
2018-08-19T19:03:00.521Z,6.23
2018-08-19T19:05:40.112Z,5.93
2018-08-19T19:08:13.250Z,11.43
2018-08-19T19:10:50.440Z,7.90
2018-08-19T19:13:21.232Z,7.10
2018-08-19T19:15:50.079Z,6.97
2018-08-19T19:18:19.247Z,8.13
2018-08-19T19:20:53.255Z,7.43
2018-08-19T19:23:27.434Z,7.73
2018-08-19T19:25:56.125Z,7.50
2018-08-19T19:28:24.907Z,7.43
2018-08-19T19:31:25.628Z,8.47
2018-08-19T19:34:07.977Z,7.80
2018-08-19T19:36:36.815Z,7.70
2018-08-19T19:39:06.099Z,7.80
2018-08-19T19:41:35.613Z,8.57
2018-08-19T19:44:23.454Z,8.97
2018-08-19T19:46:53.038Z,8.40
2018-08-19T19:49:22.016Z,8.03
2018-08-19T19:51:56.271Z,9.93
2018-08-19T19:54:25.313Z,8.47
2018-08-19T19:56:53.978Z,8.00
2018-08-19T19:59:26.618Z,8.77
2018-08-19T20:01:55.423Z,8.83
2018-08-19T20:04:24.727Z,9.40
2018-08-19T20:06:53.628Z,8.93
2018-08-19T20:09:22.663Z,10.17
2018-08-19T20:11:51.361Z,8.73
2018-08-19T20:14:20.117Z,9.27
2018-08-19T20:16:49.766Z,9.17
2018-08-19T20:19:18.750Z,9.77
2018-08-19T20:21:47.507Z,10.63
2018-08-19T20:24:16.321Z,9.20
2018-08-19T20:26:44.982Z,9.53
2018-08-19T20:29:13.731Z,8.83
2018-08-19T20:31:42.582Z,9.37
2018-08-19T20:34:11.576Z,9.50
2018-08-19T20:36:40.502Z,9.30
2018-08-19T20:39:09.494Z,9.53
2018-08-19T20:41:38.337Z,9.70
2018-08-19T20:44:08.724Z,9.60
2018-08-19T20:46:40.539Z,10.13
2018-08-19T20:49:09.558Z,9.00
2018-08-19T20:51:38.477Z,9.20
2018-08-19T20:54:07.158Z,8.60
2018-08-19T20:56:35.911Z,8.97
2018-08-19T20:59:04.745Z,11.23
2018-08-19T21:01:33.514Z,9.13
2018-08-19T21:04:02.198Z,8.73
2018-08-19T21:06:30.900Z,11.40
2018-08-19T21:09:00.182Z,10.37
2018-08-19T21:11:28.875Z,12.43
2018-08-19T21:13:57.620Z,10.37
2018-08-19T21:16:26.570Z,9.53
2018-08-19T21:18:55.262Z,10.77
2018-08-19T21:21:24.752Z,8.57
2018-08-19T21:23:53.514Z,10.03
2018-08-19T21:26:22.396Z,9.13
2018-08-19T21:28:56.374Z,10.20
2018-08-19T21:31:25.159Z,9.97
2018-08-19T21:33:53.920Z,10.53
2018-08-19T21:36:22.766Z,11.63
2018-08-19T21:38:51.525Z,10.90
2018-08-19T21:41:20.250Z,10.40
2018-08-19T21:43:49.233Z,11.27
2018-08-19T21:46:24.378Z,12.03
2018-08-19T21:48:53.412Z,9.30
2018-08-19T21:51:22.103Z,12.60
2018-08-19T21:53:50.778Z,9.83
2018-08-19T21:56:19.493Z,10.37
2018-08-19T21:58:48.177Z,10.90
2018-08-19T22:01:26.902Z,12.03
2018-08-19T22:10:43.077Z,12.07
2018-08-19T22:13:12.152Z,12.83
2018-08-19T22:15:42.337Z,13.07
2018-08-19T22:18:14.753Z,14.70
2018-08-19T22:20:54.673Z,14.60
2018-08-19T22:23:29.890Z,11.40
2018-08-19T22:25:58.835Z,12.57
2018-08-19T22:28:27.629Z,13.77
2018-08-19T22:30:56.317Z,12.40
2018-08-19T22:33:25.058Z,11.70
2018-08-19T22:35:54.275Z,15.23
2018-08-19T22:38:23.674Z,14.90
2018-08-19T22:40:52.505Z,14.70
2018-08-19T22:43:21.186Z,13.30
2018-08-19T22:45:49.867Z,11.67
2018-08-19T22:48:33.995Z,12.57
2018-08-19T22:51:02.692Z,12.17
2018-08-19T22:53:31.571Z,11.47
2018-08-19T22:56:00.537Z,13.00
2018-08-19T22:58:29.251Z,16.30
2018-08-19T23:00:58.037Z,10.67
2018-08-19T23:03:27.265Z,14.93
2018-08-19T23:05:56.368Z,14.27
2018-08-19T23:08:27.910Z,13.63
2018-08-19T23:10:58.778Z,16.70
2018-08-19T23:13:38.734Z,13.33
2018-08-19T23:16:09.626Z,15.23
2018-08-19T23:18:39.231Z,11.47
2018-08-19T23:21:08.662Z,13.27
2018-08-19T23:23:37.349Z,13.13
2018-08-19T23:26:06.597Z,12.33
2018-08-19T23:28:35.253Z,13.30
2018-08-19T23:31:04.066Z,16.23
2018-08-19T23:33:32.813Z,13.33
2018-08-19T23:36:01.501Z,13.13
2018-08-19T23:38:30.287Z,11.23
2018-08-19T23:40:58.966Z,12.77
2018-08-19T23:43:27.821Z,12.23
2018-08-19T23:45:56.859Z,13.20
2018-08-19T23:48:25.793Z,12.73
2018-08-19T23:50:54.903Z,11.27
2018-08-19T23:53:23.520Z,14.50
2018-08-19T23:55:52.221Z,14.33
2018-08-19T23:58:20.885Z,12.50
